createdAt,value
2023-03-16T00:02:24.347Z,41.42
2023-03-16T00:04:51.035Z,41.65
2023-03-16T00:07:17.657Z,41.63
2023-03-16T00:09:44.329Z,41.23
2023-03-16T00:12:16.134Z,41.55
2023-03-16T00:14:44.524Z,41.41
2023-03-16T00:17:18.979Z,41.17
2023-03-16T00:19:54.949Z,40.96
2023-03-16T00:22:26.370Z,41.03
2023-03-16T00:24:53.552Z,41.09
2023-03-16T00:27:20.217Z,40.84
2023-03-16T00:29:55.707Z,40.97
2023-03-16T00:32:31.998Z,40.99
2023-03-16T00:34:58.928Z,41.22
2023-03-16T00:37:26.818Z,41.32
2023-03-16T00:39:56.352Z,41.53
2023-03-16T00:42:28.054Z,41.42
2023-03-16T00:44:57.651Z,40.98
2023-03-16T00:47:29.882Z,41.18
2023-03-16T00:49:56.848Z,41.15
2023-03-16T00:52:24.275Z,41.27
2023-03-16T00:54:53.090Z,41.21
2023-03-16T00:57:21.641Z,41.16
2023-03-16T00:59:48.961Z,41.61
2023-03-16T01:02:17.334Z,41.61
2023-03-16T01:04:43.938Z,41.39
2023-03-16T01:07:13.436Z,41.41
2023-03-16T01:09:41.174Z,41.34
2023-03-16T01:12:14.799Z,41.62
2023-03-16T01:14:42.160Z,40.93
2023-03-16T01:17:10.180Z,41.30
2023-03-16T01:19:37.605Z,41.23
2023-03-16T01:22:09.763Z,41.35
2023-03-16T01:24:36.481Z,41.35
2023-03-16T01:27:03.335Z,41.67
2023-03-16T01:29:30.355Z,41.59
2023-03-16T01:31:56.977Z,41.89
2023-03-16T01:34:23.645Z,42.00
2023-03-16T01:36:51.077Z,42.01
2023-03-16T01:39:17.658Z,41.90
2023-03-16T01:41:45.233Z,41.73
2023-03-16T01:44:28.314Z,42.24
2023-03-16T01:46:54.894Z,41.53
2023-03-16T01:49:28.108Z,41.88
2023-03-16T01:52:02.797Z,41.77
2023-03-16T01:54:49.855Z,41.88
2023-03-16T01:57:24.190Z,42.03
2023-03-16T02:00:15.903Z,41.99
2023-03-16T02:02:43.702Z,41.95
2023-03-16T02:05:16.205Z,41.98
2023-03-16T02:07:48.235Z,41.85
2023-03-16T02:10:17.773Z,41.69
2023-03-16T02:12:44.704Z,41.72
2023-03-16T02:15:13.954Z,42.11
2023-03-16T02:17:44.309Z,41.90
2023-03-16T02:20:19.817Z,41.47
2023-03-16T02:22:49.216Z,41.18
2023-03-16T02:25:18.357Z,41.78
2023-03-16T02:28:08.810Z,41.95
2023-03-16T02:30:35.663Z,41.80
2023-03-16T02:33:05.036Z,41.85
2023-03-16T02:35:32.256Z,41.98
2023-03-16T02:37:58.829Z,41.88
2023-03-16T02:40:28.858Z,41.92
2023-03-16T02:43:17.291Z,41.92
2023-03-16T02:45:47.148Z,41.77
2023-03-16T02:48:18.458Z,41.87
2023-03-16T02:50:49.978Z,41.96
2023-03-16T02:53:16.803Z,42.00
2023-03-16T02:55:43.638Z,41.90
2023-03-16T02:58:10.244Z,42.11
2023-03-16T03:00:36.805Z,41.88
2023-03-16T03:03:03.506Z,41.78
2023-03-16T03:05:30.129Z,41.49
2023-03-16T03:07:56.944Z,41.75
2023-03-16T03:10:23.500Z,41.61
2023-03-16T03:12:50.071Z,41.42
2023-03-16T03:15:18.267Z,41.57
2023-03-16T03:17:45.164Z,41.70
2023-03-16T03:20:16.670Z,41.67
2023-03-16T03:22:45.123Z,41.25
2023-03-16T03:25:14.126Z,41.65
2023-03-16T03:27:44.453Z,41.65
2023-03-16T03:30:13.304Z,41.66
2023-03-16T03:32:40.709Z,41.36
2023-03-16T03:35:08.190Z,41.64
2023-03-16T03:37:34.961Z,41.66
2023-03-16T03:40:07.912Z,41.04
2023-03-16T03:42:34.490Z,41.86
2023-03-16T03:45:01.044Z,41.20
2023-03-16T03:47:27.631Z,41.48
2023-03-16T03:49:54.183Z,41.38
2023-03-16T03:52:20.919Z,41.49
2023-03-16T03:54:47.467Z,41.33
2023-03-16T03:57:14.030Z,41.67
2023-03-16T03:59:43.823Z,41.63
2023-03-16T04:02:11.227Z,41.62
2023-03-16T04:04:37.919Z,41.59
2023-03-16T04:07:04.507Z,41.08
2023-03-16T04:09:33.959Z,41.53
2023-03-16T04:12:01.839Z,41.13
2023-03-16T04:14:29.286Z,41.13
2023-03-16T04:16:56.373Z,41.46
2023-03-16T04:19:24.055Z,41.23
2023-03-16T04:21:51.324Z,41.26
2023-03-16T04:24:18.367Z,41.51
2023-03-16T04:26:45.583Z,41.41
2023-03-16T04:29:14.323Z,41.34
2023-03-16T04:31:42.475Z,41.35
2023-03-16T04:34:09.158Z,41.47
2023-03-16T04:36:35.719Z,41.51
2023-03-16T04:39:02.337Z,41.86
2023-03-16T04:41:28.889Z,41.84
2023-03-16T04:43:55.464Z,41.20
2023-03-16T04:46:22.075Z,41.12
2023-03-16T04:48:48.654Z,41.29
2023-03-16T04:51:15.346Z,41.34
2023-03-16T04:53:41.910Z,41.25
2023-03-16T04:56:08.723Z,41.15
2023-03-16T04:58:35.293Z,41.09
2023-03-16T05:01:02.354Z,41.22
2023-03-16T05:03:28.901Z,41.08
2023-03-16T05:05:55.609Z,41.22
2023-03-16T05:08:22.645Z,41.03
2023-03-16T05:10:49.213Z,41.52
2023-03-16T05:13:15.761Z,41.17
2023-03-16T05:15:42.448Z,41.43
2023-03-16T05:18:09.166Z,41.28
2023-03-16T05:20:35.958Z,41.38
2023-03-16T05:23:02.548Z,41.24
2023-03-16T05:25:29.242Z,41.35
2023-03-16T05:27:57.031Z,41.38
2023-03-16T05:30:23.648Z,41.08
2023-03-16T05:32:51.254Z,41.25
2023-03-16T05:35:18.067Z,41.35
2023-03-16T05:37:44.946Z,41.30
2023-03-16T05:40:19.313Z,41.15
2023-03-16T05:42:47.510Z,41.31
2023-03-16T05:45:15.739Z,41.06
2023-03-16T05:47:43.661Z,41.35
2023-03-16T05:50:14.778Z,41.34
2023-03-16T05:52:41.492Z,41.37
2023-03-16T05:55:09.608Z,41.54
2023-03-16T05:57:36.197Z,41.48
2023-03-16T06:00:15.633Z,41.50
2023-03-16T06:02:48.354Z,41.21
2023-03-16T06:05:16.407Z,41.24
2023-03-16T06:07:43.242Z,41.24
2023-03-16T06:10:11.462Z,41.55
2023-03-16T06:12:38.339Z,41.42
2023-03-16T06:15:08.943Z,41.26
2023-03-16T06:17:36.429Z,41.47
2023-03-16T06:20:10.119Z,41.63
2023-03-16T06:22:41.211Z,41.60
2023-03-16T06:25:09.921Z,41.64
2023-03-16T06:27:37.098Z,41.61
2023-03-16T06:30:04.977Z,41.58
2023-03-16T06:32:31.832Z,41.52
2023-03-16T06:35:02.029Z,41.43
2023-03-16T06:37:28.822Z,41.70
2023-03-16T06:39:55.468Z,41.76
2023-03-16T06:42:22.135Z,41.69
2023-03-16T06:44:48.692Z,41.79
2023-03-16T06:47:15.286Z,41.76
2023-03-16T06:49:41.855Z,41.64
2023-03-16T06:52:10.505Z,41.73
2023-03-16T06:54:37.629Z,41.58
2023-03-16T06:57:04.409Z,41.70
2023-03-16T06:59:31.358Z,41.34
2023-03-16T07:01:57.919Z,41.12
2023-03-16T07:04:24.604Z,40.94
2023-03-16T07:06:51.493Z,41.08
2023-03-16T07:09:18.036Z,40.87
2023-03-16T07:11:44.855Z,40.64
2023-03-16T07:14:11.928Z,40.28
2023-03-16T07:16:38.585Z,40.09
2023-03-16T07:19:05.177Z,39.97
2023-03-16T07:21:39.187Z,39.91
2023-03-16T07:24:06.791Z,40.04
2023-03-16T07:26:33.344Z,39.81
2023-03-16T07:28:59.919Z,39.86
2023-03-16T07:31:26.562Z,39.98
2023-03-16T07:33:53.214Z,39.83
2023-03-16T07:36:20.622Z,39.86
2023-03-16T07:38:47.240Z,39.92
2023-03-16T07:41:14.161Z,39.89
2023-03-16T07:43:40.775Z,39.85
2023-03-16T07:46:07.436Z,40.01
2023-03-16T07:48:34.016Z,39.98
2023-03-16T07:51:00.566Z,40.07
2023-03-16T07:53:27.118Z,40.12
2023-03-16T07:55:53.717Z,39.89
2023-03-16T07:58:20.340Z,39.82
2023-03-16T08:00:46.951Z,39.81
2023-03-16T08:03:14.019Z,39.73
2023-03-16T08:05:40.701Z,39.79
2023-03-16T08:08:09.721Z,39.99
2023-03-16T08:10:36.427Z,39.81
2023-03-16T08:13:04.824Z,39.89
2023-03-16T08:15:50.455Z,40.05
2023-03-16T08:18:17.148Z,39.98
2023-03-16T08:20:44.651Z,39.87
2023-03-16T08:23:13.128Z,39.81
2023-03-16T08:25:39.742Z,39.90
2023-03-16T08:28:08.872Z,39.97
2023-03-16T08:30:36.325Z,39.92
2023-03-16T08:33:03.483Z,39.92
2023-03-16T08:35:30.117Z,40.07
2023-03-16T08:37:56.714Z,40.00
2023-03-16T08:40:23.319Z,40.17
2023-03-16T08:42:54.390Z,40.17
2023-03-16T08:45:20.998Z,40.03
2023-03-16T08:47:47.592Z,39.97
2023-03-16T08:50:15.552Z,40.07
2023-03-16T08:52:42.872Z,40.06
2023-03-16T08:55:11.085Z,40.04
2023-03-16T08:57:39.285Z,39.88
2023-03-16T09:00:12.988Z,39.95
2023-03-16T09:02:40.730Z,39.96
2023-03-16T09:05:12.745Z,39.79
2023-03-16T09:07:39.668Z,39.84
2023-03-16T09:10:13.327Z,39.79
2023-03-16T09:12:40.853Z,39.74
2023-03-16T09:15:08.969Z,39.88
2023-03-16T09:17:36.305Z,39.58
2023-03-16T09:20:19.549Z,39.97
2023-03-16T09:22:48.670Z,39.66
2023-03-16T09:25:15.563Z,39.79
2023-03-16T09:27:42.694Z,39.84
2023-03-16T09:30:10.648Z,39.96
2023-03-16T09:32:37.560Z,39.95
2023-03-16T09:35:06.294Z,39.83
2023-03-16T09:37:44.630Z,39.75
2023-03-16T09:40:26.617Z,39.90
2023-03-16T09:43:29.196Z,39.92
2023-03-16T09:46:09.683Z,39.96
2023-03-16T09:48:37.893Z,39.92
2023-03-16T09:51:07.773Z,40.02
2023-03-16T09:53:38.013Z,39.90
2023-03-16T09:56:10.611Z,40.13
2023-03-16T09:58:37.254Z,40.12
2023-03-16T10:01:41.353Z,39.99
2023-03-16T10:04:33.917Z,40.17
2023-03-16T10:07:03.812Z,40.09
2023-03-16T10:09:33.266Z,39.92
2023-03-16T10:12:02.652Z,40.12
2023-03-16T10:14:47.494Z,40.20
2023-03-16T10:17:33.284Z,40.19
2023-03-16T10:20:04.992Z,40.35
2023-03-16T10:22:34.904Z,40.46
2023-03-16T10:25:08.860Z,40.30
2023-03-16T10:27:38.810Z,40.20
2023-03-16T10:30:19.989Z,40.28
2023-03-16T10:32:47.203Z,40.25
2023-03-16T10:35:16.894Z,40.13
2023-03-16T10:37:43.496Z,40.59
2023-03-16T10:40:12.803Z,40.35
2023-03-16T10:42:39.686Z,40.47
2023-03-16T10:45:06.630Z,40.37
2023-03-16T10:47:34.041Z,40.25
2023-03-16T10:50:14.310Z,40.30
2023-03-16T10:52:44.534Z,40.42
2023-03-16T10:55:19.028Z,40.49
2023-03-16T10:57:51.244Z,40.47
2023-03-16T11:00:36.190Z,40.37
2023-03-16T11:03:32.217Z,40.25
2023-03-16T11:06:03.703Z,40.41
2023-03-16T11:08:39.912Z,40.61
2023-03-16T11:11:13.288Z,40.60
2023-03-16T11:13:45.011Z,40.47
2023-03-16T11:16:18.000Z,40.48
2023-03-16T11:18:48.369Z,40.33
2023-03-16T11:21:54.931Z,40.51
2023-03-16T11:24:59.377Z,40.33
2023-03-16T11:27:27.842Z,40.41
2023-03-16T11:30:12.721Z,40.33
2023-03-16T11:32:41.502Z,40.57
2023-03-16T11:35:19.489Z,40.51
2023-03-16T11:37:58.081Z,40.46
2023-03-16T11:40:52.426Z,40.45
2023-03-16T11:43:50.531Z,40.42
2023-03-16T11:46:20.687Z,40.53
2023-03-16T11:49:10.389Z,40.49
2023-03-16T11:52:06.571Z,40.52
2023-03-16T11:55:10.518Z,40.29
2023-03-16T11:57:51.680Z,40.58
2023-03-16T12:00:57.572Z,40.38
2023-03-16T12:03:33.121Z,40.46
2023-03-16T12:06:35.399Z,40.54
2023-03-16T12:09:51.087Z,40.38
2023-03-16T12:12:23.173Z,40.36
2023-03-16T12:15:14.484Z,40.58
2023-03-16T12:17:42.754Z,40.53
2023-03-16T12:20:23.422Z,40.51
2023-03-16T12:23:03.006Z,40.76
2023-03-16T12:25:36.647Z,40.48
2023-03-16T12:28:05.586Z,40.48
2023-03-16T12:30:32.853Z,40.66
2023-03-16T12:33:07.743Z,40.60
2023-03-16T12:35:45.025Z,40.61
2023-03-16T12:38:26.516Z,40.72
2023-03-16T12:41:07.097Z,40.50
2023-03-16T12:43:49.773Z,40.47
2023-03-16T12:46:25.069Z,40.61
2023-03-16T12:48:54.386Z,40.49
2023-03-16T12:51:20.930Z,40.77
2023-03-16T12:53:53.560Z,40.73
2023-03-16T12:56:33.519Z,40.79
2023-03-16T12:59:02.178Z,40.65
2023-03-16T13:01:39.056Z,40.47
2023-03-16T13:04:14.881Z,40.48
2023-03-16T13:06:49.447Z,40.69
2023-03-16T13:09:32.585Z,40.83
2023-03-16T13:12:04.945Z,40.70
2023-03-16T13:14:41.757Z,40.77
2023-03-16T13:17:27.215Z,40.61
2023-03-16T13:20:31.254Z,40.76
2023-03-16T13:23:17.139Z,40.51
2023-03-16T13:25:45.621Z,40.75
2023-03-16T13:28:14.358Z,40.81
2023-03-16T13:30:48.939Z,40.59
2023-03-16T13:33:25.702Z,40.68
2023-03-16T13:35:54.349Z,40.59
2023-03-16T13:38:22.799Z,40.79
2023-03-16T13:40:53.046Z,40.53
2023-03-16T13:43:24.156Z,40.61
2023-03-16T13:45:50.788Z,40.49
2023-03-16T13:48:20.972Z,40.77
2023-03-16T13:50:57.706Z,40.67
2023-03-16T13:53:29.809Z,40.63
2023-03-16T13:55:57.534Z,40.61
2023-03-16T13:58:35.485Z,40.71
2023-03-16T14:01:04.930Z,40.93
2023-03-16T14:03:37.108Z,40.72
2023-03-16T14:06:05.870Z,41.05
2023-03-16T14:08:33.828Z,40.73
2023-03-16T14:11:01.650Z,40.71
2023-03-16T14:13:28.242Z,40.88
2023-03-16T14:15:56.796Z,40.94
2023-03-16T14:18:37.134Z,40.95
2023-03-16T14:21:17.915Z,40.83
2023-03-16T14:23:47.336Z,40.96
2023-03-16T14:26:16.448Z,41.00
2023-03-16T14:28:58.541Z,40.85
2023-03-16T14:31:34.388Z,40.67
2023-03-16T14:34:08.684Z,40.81
2023-03-16T14:36:37.741Z,40.87
2023-03-16T14:39:11.772Z,40.80
2023-03-16T14:41:39.066Z,40.87
2023-03-16T14:44:11.015Z,40.90
2023-03-16T14:46:41.193Z,40.82
2023-03-16T14:49:37.485Z,40.87
2023-03-16T14:52:31.622Z,40.78
2023-03-16T14:54:59.061Z,40.73
2023-03-16T14:57:26.713Z,40.67
2023-03-16T14:59:53.836Z,40.77
2023-03-16T15:02:30.307Z,40.80
2023-03-16T15:04:57.406Z,40.80
2023-03-16T15:07:33.676Z,40.78
2023-03-16T15:10:09.800Z,41.11
2023-03-16T15:12:37.892Z,40.76
2023-03-16T15:15:19.866Z,40.75
2023-03-16T15:17:50.390Z,40.97
2023-03-16T15:20:30.248Z,40.86
2023-03-16T15:22:58.655Z,40.80
2023-03-16T15:25:28.172Z,40.92
2023-03-16T15:27:54.826Z,40.73
2023-03-16T15:30:26.701Z,41.63
2023-03-16T15:32:53.432Z,42.21
2023-03-16T15:35:22.040Z,42.32
2023-03-16T15:37:48.727Z,42.14
2023-03-16T15:40:20.932Z,42.42
2023-03-16T15:42:47.508Z,42.76
2023-03-16T15:45:17.916Z,42.47
2023-03-16T15:47:46.558Z,42.67
2023-03-16T15:50:15.678Z,42.78
2023-03-16T15:52:51.340Z,42.48
2023-03-16T15:55:21.398Z,42.66
2023-03-16T15:58:02.408Z,42.73
2023-03-16T16:00:35.127Z,42.47
2023-03-16T16:03:02.837Z,42.50
2023-03-16T16:05:30.935Z,42.76
2023-03-16T16:07:58.279Z,42.87
2023-03-16T16:10:26.971Z,43.07
2023-03-16T16:12:54.953Z,42.77
2023-03-16T16:15:31.053Z,43.10
2023-03-16T16:18:19.963Z,43.07
2023-03-16T16:20:44.634Z,42.71
2023-03-16T16:23:11.202Z,43.07
2023-03-16T16:25:40.314Z,43.49
2023-03-16T16:28:21.539Z,43.66
2023-03-16T16:30:48.158Z,44.37
2023-03-16T16:33:25.660Z,43.74
2023-03-16T16:36:00.195Z,43.81
2023-03-16T16:38:27.131Z,43.66
2023-03-16T16:40:57.447Z,43.36
2023-03-16T16:43:41.255Z,43.46
2023-03-16T16:46:28.505Z,43.47
2023-03-16T16:49:01.761Z,43.00
2023-03-16T16:51:29.843Z,42.89
2023-03-16T16:53:58.136Z,42.83
2023-03-16T16:56:30.708Z,42.58
2023-03-16T16:58:58.463Z,42.69
2023-03-16T17:01:33.681Z,42.52
2023-03-16T17:04:01.347Z,42.45
2023-03-16T17:06:28.647Z,42.47
2023-03-16T17:08:55.435Z,42.67
2023-03-16T17:11:30.051Z,42.51
2023-03-16T17:13:59.199Z,42.31
2023-03-16T17:16:27.772Z,42.66
2023-03-16T17:18:55.344Z,42.46
2023-03-16T17:21:23.767Z,42.23
2023-03-16T17:23:52.846Z,42.35
2023-03-16T17:26:25.766Z,42.24
2023-03-16T17:29:01.914Z,42.19
2023-03-16T17:31:34.992Z,42.35
2023-03-16T17:34:03.421Z,42.20
2023-03-16T17:36:30.028Z,42.11
2023-03-16T17:38:56.578Z,42.24
2023-03-16T17:41:25.450Z,42.45
2023-03-16T17:43:54.545Z,42.32
2023-03-16T17:46:23.908Z,42.20
2023-03-16T17:48:52.771Z,42.41
2023-03-16T17:51:21.258Z,42.50
2023-03-16T17:53:48.479Z,42.21
2023-03-16T17:56:20.536Z,42.25
2023-03-16T17:58:49.177Z,42.22
2023-03-16T18:01:16.645Z,42.49
2023-03-16T18:03:45.956Z,42.17
2023-03-16T18:06:20.348Z,42.29
2023-03-16T18:08:50.645Z,42.30
2023-03-16T18:11:21.603Z,42.14
2023-03-16T18:13:56.035Z,42.15
2023-03-16T18:16:31.267Z,42.12
2023-03-16T18:19:05.690Z,42.29
2023-03-16T18:21:33.574Z,42.09
2023-03-16T18:24:00.154Z,42.20
2023-03-16T18:26:27.598Z,42.21
2023-03-16T18:28:54.149Z,42.29
2023-03-16T18:31:26.402Z,42.27
2023-03-16T18:34:00.852Z,42.06
2023-03-16T18:36:30.161Z,42.00
2023-03-16T18:38:57.303Z,41.98
2023-03-16T18:41:30.412Z,42.08
2023-03-16T18:43:58.684Z,42.15
2023-03-16T18:46:39.637Z,42.07
2023-03-16T18:49:18.228Z,42.17
2023-03-16T18:51:49.270Z,42.21
2023-03-16T18:54:21.812Z,42.17
2023-03-16T18:56:48.554Z,42.06
2023-03-16T18:59:15.560Z,42.11
2023-03-16T19:01:44.069Z,41.96
2023-03-16T19:04:30.111Z,42.07
2023-03-16T19:06:58.247Z,42.02
2023-03-16T19:09:29.568Z,41.91
2023-03-16T19:11:57.230Z,41.97
2023-03-16T19:14:26.726Z,42.28
2023-03-16T19:16:56.743Z,42.11
2023-03-16T19:19:24.380Z,41.80
2023-03-16T19:21:56.450Z,42.01
2023-03-16T19:24:34.825Z,41.78
2023-03-16T19:27:02.003Z,41.83
2023-03-16T19:29:33.472Z,41.83
2023-03-16T19:32:00.818Z,41.98
2023-03-16T19:34:27.698Z,41.82
2023-03-16T19:36:54.411Z,41.89
2023-03-16T19:39:23.210Z,41.94
2023-03-16T19:41:58.190Z,42.04
2023-03-16T19:44:26.777Z,42.06
2023-03-16T19:46:53.691Z,42.04
2023-03-16T19:49:32.227Z,41.91
2023-03-16T19:51:58.781Z,42.17
2023-03-16T19:54:27.732Z,42.13
2023-03-16T19:56:56.035Z,41.78
2023-03-16T19:59:32.326Z,42.19
2023-03-16T20:01:59.162Z,41.88
2023-03-16T20:04:27.000Z,42.00
2023-03-16T20:06:53.967Z,42.00
2023-03-16T20:09:20.984Z,41.89
2023-03-16T20:11:48.363Z,42.07
2023-03-16T20:14:21.899Z,42.15
2023-03-16T20:16:48.533Z,41.81
2023-03-16T20:19:15.710Z,41.79
2023-03-16T20:21:42.734Z,42.00
2023-03-16T20:24:16.989Z,42.00
2023-03-16T20:26:44.995Z,41.98
2023-03-16T20:29:18.529Z,41.99
2023-03-16T20:31:44.915Z,41.82
2023-03-16T20:34:20.906Z,42.07
2023-03-16T20:36:47.508Z,41.87
2023-03-16T20:39:14.071Z,41.68
2023-03-16T20:41:41.321Z,41.76
2023-03-16T20:44:19.086Z,41.90
2023-03-16T20:46:46.027Z,41.79
2023-03-16T20:49:21.479Z,41.77
2023-03-16T20:51:49.572Z,41.73
2023-03-16T20:54:16.644Z,41.84
2023-03-16T20:56:43.669Z,42.13
2023-03-16T20:59:30.813Z,41.99
2023-03-16T21:01:57.419Z,42.38
2023-03-16T21:04:27.208Z,42.26
2023-03-16T21:06:54.126Z,42.25
2023-03-16T21:09:21.264Z,41.84
2023-03-16T21:11:48.398Z,42.17
2023-03-16T21:14:21.992Z,42.17
2023-03-16T21:16:48.947Z,42.21
2023-03-16T21:19:21.597Z,42.09
2023-03-16T21:21:48.627Z,42.19
2023-03-16T21:24:15.259Z,42.37
2023-03-16T21:26:42.952Z,42.36
2023-03-16T21:29:21.937Z,41.99
2023-03-16T21:31:48.647Z,42.01
2023-03-16T21:34:23.913Z,41.85
2023-03-16T21:36:50.569Z,42.08
2023-03-16T21:39:22.624Z,42.00
2023-03-16T21:41:50.744Z,42.17
2023-03-16T21:44:18.464Z,42.06
2023-03-16T21:46:46.589Z,42.01
2023-03-16T21:49:13.854Z,42.16
2023-03-16T21:51:43.058Z,42.36
2023-03-16T21:54:16.081Z,42.31
2023-03-16T21:56:43.185Z,42.30
2023-03-16T21:59:10.285Z,42.40
2023-03-16T22:01:44.897Z,42.61
2023-03-16T22:04:17.586Z,42.46
2023-03-16T22:06:44.978Z,42.67
2023-03-16T22:09:19.927Z,42.84
2023-03-16T22:11:46.668Z,42.71
2023-03-16T22:14:19.709Z,42.54
2023-03-16T22:16:46.547Z,42.71
2023-03-16T22:19:14.661Z,42.68
2023-03-16T22:21:42.951Z,42.81
2023-03-16T22:24:27.384Z,42.95
2023-03-16T22:26:54.742Z,42.96
2023-03-16T22:29:28.213Z,42.95
2023-03-16T22:32:05.133Z,42.80
2023-03-16T22:34:37.574Z,42.91
2023-03-16T22:37:05.857Z,42.81
2023-03-16T22:39:36.932Z,42.81
2023-03-16T22:42:16.382Z,43.15
2023-03-16T22:44:42.939Z,43.11
2023-03-16T22:47:28.643Z,43.18
2023-03-16T22:49:55.262Z,42.92
2023-03-16T22:52:25.260Z,43.03
2023-03-16T22:54:51.801Z,42.75
2023-03-16T22:57:18.351Z,42.89
2023-03-16T22:59:45.778Z,43.02
2023-03-16T23:02:15.692Z,42.73
2023-03-16T23:04:42.383Z,43.01
2023-03-16T23:07:13.104Z,42.65
2023-03-16T23:09:40.089Z,42.78
2023-03-16T23:12:14.367Z,42.76
2023-03-16T23:14:41.530Z,42.64
2023-03-16T23:17:19.066Z,42.76
2023-03-16T23:19:46.676Z,42.71
2023-03-16T23:22:13.406Z,42.94
2023-03-16T23:24:41.008Z,42.95
2023-03-16T23:27:18.610Z,42.70
2023-03-16T23:29:45.970Z,42.75
2023-03-16T23:32:13.435Z,42.86
2023-03-16T23:34:39.995Z,43.10
2023-03-16T23:37:06.824Z,42.74
2023-03-16T23:39:33.422Z,42.72
2023-03-16T23:42:00.016Z,42.86
2023-03-16T23:44:27.839Z,42.72
2023-03-16T23:46:54.636Z,42.68
2023-03-16T23:49:26.467Z,42.55
2023-03-16T23:51:54.499Z,42.69
2023-03-16T23:54:23.469Z,42.88
2023-03-16T23:56:50.712Z,42.88
2023-03-16T23:59:17.438Z,42.77
